Time;durP1;ratioP1;P1;durP2;ratioP2;P2;SDS_P1;SDS_P2;PMS_P1;PMS_P2;Temp;Humidity;BMP_temperature;BMP_pressure;BME280_temperature;BME280_humidity;BME280_pressure;Samples;Min_cycle;Max_cycle;Signal;HPM_P1;HPM_P2
2023/05/14 00:00:40;;;;;;;8.38;4.30;;;;;;;15.42;100.00;101655.13;2091917;28;20638;-69
2023/05/14 00:02:02;;;;;;;8.95;4.60;;;;;;;15.43;100.00;101651.56;2094403;28;20551;-69
2023/05/14 00:03:24;;;;;;;12.20;4.95;;;;;;;15.42;100.00;101653.34;2107239;28;20102;-70
2023/05/14 00:04:45;;;;;;;5.80;4.10;;;;;;;15.43;100.00;101651.56;2091081;28;20048;-69
2023/05/14 00:06:09;;;;;;;8.05;4.35;;;;;;;15.38;100.00;101647.97;2078065;28;20053;-70
2023/05/14 00:07:30;;;;;;;8.70;4.65;;;;;;;15.33;100.00;101653.25;2082811;28;20048;-70
2023/05/14 00:08:53;;;;;;;8.45;5.00;;;;;;;15.32;100.00;101653.22;2090922;28;20531;-68
2023/05/14 00:10:14;;;;;;;10.35;4.60;;;;;;;15.32;100.00;101648.81;2094466;28;20041;-68
2023/05/14 00:11:38;;;;;;;8.43;4.50;;;;;;;15.32;100.00;101640.81;2088400;28;20631;-69
2023/05/14 00:12:59;;;;;;;9.52;4.55;;;;;;;15.31;100.00;101654.09;2102885;28;20044;-69
2023/05/14 00:14:22;;;;;;;8.55;4.53;;;;;;;15.29;100.00;101651.44;2087920;28;20087;-69
2023/05/14 00:15:44;;;;;;;9.43;4.78;;;;;;;15.30;100.00;101653.19;2091603;28;20064;-70
2023/05/14 00:17:07;;;;;;;8.95;4.18;;;;;;;15.30;100.00;101649.66;2097117;28;20399;-69
2023/05/14 00:18:28;;;;;;;7.70;4.35;;;;;;;15.29;100.00;101654.09;2083022;28;20152;-69
2023/05/14 00:19:50;;;;;;;8.30;4.63;;;;;;;15.27;100.00;101646.97;2087174;28;20055;-70
2023/05/14 00:21:12;;;;;;;8.55;4.65;;;;;;;15.24;100.00;101642.50;2094495;28;20040;-69
2023/05/14 00:22:35;;;;;;;7.55;4.80;;;;;;;15.24;100.00;101650.47;2097062;28;20691;-69
2023/05/14 00:23:57;;;;;;;9.82;5.28;;;;;;;15.24;100.00;101654.91;2094351;28;20052;-69
2023/05/14 00:25:19;;;;;;;10.98;4.50;;;;;;;15.23;100.00;101651.34;2096438;28;20059;-69
2023/05/14 00:26:43;;;;;;;8.35;4.20;;;;;;;15.23;100.00;101654.00;2093793;28;20048;-70
2023/05/14 00:28:05;;;;;;;8.18;4.28;;;;;;;15.23;100.00;101651.34;2096952;28;20051;-69
2023/05/14 00:29:28;;;;;;;10.13;4.18;;;;;;;15.22;100.00;101651.34;2077744;28;20402;-69
2023/05/14 00:30:49;;;;;;;7.50;4.35;;;;;;;15.19;100.00;101660.19;2089974;28;20056;-69
2023/05/14 00:32:12;;;;;;;14.90;5.15;;;;;;;15.11;100.00;101652.13;2088243;28;20374;-68
2023/05/14 00:33:35;;;;;;;8.63;4.90;;;;;;;15.02;100.00;101649.38;2086207;28;20754;-70
2023/05/14 00:34:57;;;;;;;7.68;4.43;;;;;;;15.00;100.00;101651.09;2086039;28;20045;-69
2023/05/14 00:36:20;;;;;;;11.02;4.95;;;;;;;14.99;100.00;101651.09;2077698;28;20045;-69
2023/05/14 00:37:42;;;;;;;8.57;4.63;;;;;;;15.00;100.00;101645.78;2083329;28;20053;-69
2023/05/14 00:39:03;;;;;;;8.40;4.72;;;;;;;14.99;100.00;101649.31;2102356;28;20054;-68
2023/05/14 00:40:27;;;;;;;14.63;4.90;;;;;;;15.00;100.00;101644.91;2085269;28;20050;-68
2023/05/14 00:41:49;;;;;;;9.52;5.18;;;;;;;15.00;100.00;101640.47;2091440;28;20370;-68
2023/05/14 00:43:12;;;;;;;7.78;4.60;;;;;;;14.99;100.00;101644.00;2110898;28;20047;-68
2023/05/14 00:44:33;;;;;;;7.75;4.32;;;;;;;14.98;100.00;101641.31;2090987;28;20048;-68
2023/05/14 00:45:56;;;;;;;8.35;4.82;;;;;;;14.96;100.00;101638.66;2082368;28;20082;-68
2023/05/14 00:47:17;;;;;;;6.55;4.47;;;;;;;14.93;100.00;101649.25;2099796;28;20044;-68
2023/05/14 00:48:40;;;;;;;11.40;5.20;;;;;;;14.87;100.00;101638.53;2082945;28;20080;-68
2023/05/14 00:50:03;;;;;;;10.93;4.68;;;;;;;14.83;100.00;101646.47;2079319;28;20041;-68
2023/05/14 00:51:25;;;;;;;7.40;4.32;;;;;;;14.83;100.00;101643.81;2081256;28;20375;-69
2023/05/14 00:52:48;;;;;;;10.20;4.40;;;;;;;14.84;100.00;101632.28;2091049;28;20080;-68
2023/05/14 00:54:10;;;;;;;9.38;4.40;;;;;;;14.86;100.00;101633.19;2087691;28;20095;-69
2023/05/14 00:55:32;;;;;;;9.20;4.78;;;;;;;14.87;100.00;101638.53;2089509;28;20139;-68
2023/05/14 00:56:55;;;;;;;7.95;4.50;;;;;;;14.88;100.00;101637.69;2092506;28;20082;-68
2023/05/14 00:58:19;;;;;;;9.98;4.60;;;;;;;14.87;100.00;101632.31;2093153;28;20475;-68
2023/05/14 00:59:41;;;;;;;7.82;4.68;;;;;;;14.87;100.00;101627.91;2093726;28;20041;-69
2023/05/14 01:01:03;;;;;;;11.30;4.80;;;;;;;14.90;100.00;101627.06;2077458;28;20096;-68
2023/05/14 01:02:25;;;;;;;7.95;5.32;;;;;;;14.91;100.00;101631.47;2091138;28;20143;-68
2023/05/14 01:03:47;;;;;;;8.73;4.70;;;;;;;14.85;100.00;101629.66;2092139;28;20139;-69
2023/05/14 01:05:09;;;;;;;7.88;4.35;;;;;;;14.76;100.00;101629.56;2085776;28;20051;-69
2023/05/14 01:06:39;;;;;;;9.13;4.88;;;;;;;14.63;100.00;101624.97;2108365;28;20086;-69
2023/05/14 01:08:12;;;;;;;8.82;5.20;;;;;;;14.59;100.00;101625.75;2089252;28;20607;-68
2023/05/14 01:09:43;;;;;;;7.22;4.07;;;;;;;14.60;100.00;101623.13;2103664;28;20500;-68
2023/05/14 01:11:10;;;;;;;7.85;4.70;;;;;;;14.59;100.00;101625.75;2092207;28;20389;-68
2023/05/14 01:12:39;;;;;;;12.02;5.18;;;;;;;14.61;100.00;101624.94;2078471;28;20058;-67
2023/05/14 01:14:09;;;;;;;7.32;4.88;;;;;;;14.62;100.00;101621.41;2082828;28;20068;-68
2023/05/14 01:15:33;;;;;;;10.18;5.35;;;;;;;14.62;100.00;101623.16;2093605;28;20214;-68
2023/05/14 01:16:58;;;;;;;9.25;5.05;;;;;;;14.62;100.00;101612.53;2094372;28;20033;-68
2023/05/14 01:18:21;;;;;;;10.77;4.85;;;;;;;14.62;100.00;101616.09;2086188;28;20041;-68
2023/05/14 01:19:44;;;;;;;8.48;4.80;;;;;;;14.61;100.00;101619.63;2092578;28;20040;-68
2023/05/14 01:21:19;;;;;;;9.10;4.38;;;;;;;14.54;100.00;101607.13;2082007;28;20050;-68
2023/05/14 01:22:43;;;;;;;9.05;4.57;;;;;;;14.49;100.00;101624.78;2102452;28;20039;-68
2023/05/14 01:24:05;;;;;;;7.38;4.30;;;;;;;14.50;100.00;101621.25;2094905;28;20506;-68
2023/05/14 01:25:28;;;;;;;10.63;4.90;;;;;;;14.54;100.00;101616.84;2092713;28;20040;-68
2023/05/14 01:26:50;;;;;;;9.23;4.32;;;;;;;14.57;100.00;101614.25;2110775;28;20534;-68
2023/05/14 01:28:18;;;;;;;8.10;4.88;;;;;;;14.54;100.00;101608.88;2097274;28;20049;-68
2023/05/14 01:29:44;;;;;;;9.15;5.32;;;;;;;14.52;100.00;101606.19;2105140;28;20044;-68
2023/05/14 01:31:12;;;;;;;8.20;4.93;;;;;;;14.53;100.00;101601.78;2086734;28;20111;-68
2023/05/14 01:32:34;;;;;;;9.85;5.03;;;;;;;14.53;100.00;101600.00;2083213;28;20075;-68
2023/05/14 01:33:57;;;;;;;;;;;;;;;14.50;100.00;101602.66;2082690;28;20401;-68
2023/05/14 01:35:21;;;;;;;8.40;4.63;;;;;;;14.48;100.00;101604.38;2082818;28;20425;-68
2023/05/14 01:36:44;;;;;;;9.80;4.97;;;;;;;14.48;100.00;101611.47;2083327;28;20045;-67
2023/05/14 01:38:10;;;;;;;8.95;5.22;;;;;;;14.45;100.00;101603.44;2095358;28;20571;-67
2023/05/14 01:39:33;;;;;;;11.18;5.40;;;;;;;14.41;100.00;101610.47;2084761;28;20056;-68
2023/05/14 01:40:57;;;;;;;9.50;4.90;;;;;;;14.42;100.00;101606.06;2082765;28;20544;-68
2023/05/14 01:42:18;;;;;;;11.63;5.20;;;;;;;14.40;100.00;101607.78;2099727;28;20051;-68
2023/05/14 01:43:41;;;;;;;9.98;4.68;;;;;;;14.37;100.00;101613.94;2089890;28;20410;-68
2023/05/14 01:45:04;;;;;;;8.23;4.75;;;;;;;14.36;100.00;101612.16;2091371;28;20172;-68
2023/05/14 01:46:30;;;;;;;8.13;4.57;;;;;;;14.33;100.00;101607.69;2084996;28;20049;-67
2023/05/14 01:47:53;;;;;;;8.65;5.03;;;;;;;14.33;100.00;101617.41;2092121;28;20074;-68
2023/05/14 01:49:16;;;;;;;8.50;4.55;;;;;;;14.34;100.00;101606.81;2082203;28;20061;-68
2023/05/14 01:50:39;;;;;;;8.18;5.10;;;;;;;14.36;100.00;101622.78;2085953;28;20068;-67
2023/05/14 01:52:00;;;;;;;8.15;4.78;;;;;;;14.37;100.00;101616.59;2099897;28;20062;-68
2023/05/14 01:53:25;;;;;;;8.57;5.22;;;;;;;14.35;100.00;101616.56;2084996;28;20068;-67
2023/05/14 01:54:47;;;;;;;7.95;4.97;;;;;;;14.35;100.00;101605.06;2092713;28;20044;-68
2023/05/14 01:56:08;;;;;;;11.23;4.88;;;;;;;14.35;100.00;101616.56;2080465;28;20112;-68
2023/05/14 01:57:31;;;;;;;9.15;4.75;;;;;;;14.36;100.00;101609.50;2088164;28;20523;-69
2023/05/14 01:58:54;;;;;;;7.90;5.07;;;;;;;14.36;100.00;101602.44;2087385;28;20037;-68
2023/05/14 02:00:16;;;;;;;7.95;4.88;;;;;;;14.36;100.00;101610.41;2085082;28;20052;-68
2023/05/14 02:01:38;;;;;;;7.47;4.30;;;;;;;14.38;100.00;101609.53;2089723;28;20041;-68
2023/05/14 02:02:59;;;;;;;8.95;4.70;;;;;;;14.38;100.00;101609.53;2094082;28;20053;-68
2023/05/14 02:04:22;;;;;;;9.07;4.57;;;;;;;14.38;100.00;101609.53;2093972;28;20501;-68
2023/05/14 02:05:44;;;;;;;10.13;4.93;;;;;;;14.38;100.00;101610.44;2110814;28;20040;-68
2023/05/14 02:07:06;;;;;;;7.47;4.35;;;;;;;14.39;100.00;101611.31;2092679;28;20367;-68
2023/05/14 02:08:29;;;;;;;8.20;4.25;;;;;;;14.38;100.00;101618.41;2086926;28;20048;-68
2023/05/14 02:09:52;;;;;;;10.07;4.50;;;;;;;14.37;100.00;101608.63;2087230;28;20397;-67
2023/05/14 02:11:14;;;;;;;7.53;4.50;;;;;;;14.37;100.00;101619.25;2081525;28;20049;-68
2023/05/14 02:12:36;;;;;;;8.07;4.20;;;;;;;14.38;100.00;101614.84;2078797;28;20072;-68
2023/05/14 02:13:58;;;;;;;8.65;4.68;;;;;;;14.35;100.00;101613.03;2084525;28;20103;-68
2023/05/14 02:15:20;;;;;;;8.18;4.45;;;;;;;14.28;100.00;101614.69;2098068;28;20099;-68
2023/05/14 02:16:41;;;;;;;8.52;4.50;;;;;;;14.28;100.00;101622.66;2092215;28;20063;-68
2023/05/14 02:18:04;;;;;;;7.03;4.40;;;;;;;14.28;100.00;101612.03;2097610;28;20044;-68
2023/05/14 02:19:26;;;;;;;8.13;4.60;;;;;;;14.26;100.00;101608.47;2081600;28;20053;-68
2023/05/14 02:20:49;;;;;;;9.02;4.43;;;;;;;14.25;100.00;101611.97;2092795;28;20037;-68
2023/05/14 02:22:11;;;;;;;10.77;4.72;;;;;;;14.26;100.00;101610.22;2089719;28;20049;-68
2023/05/14 02:23:35;;;;;;;7.38;4.80;;;;;;;14.26;100.00;101613.78;2080681;28;20045;-68
2023/05/14 02:24:57;;;;;;;11.27;5.43;;;;;;;14.26;100.00;101608.47;2084369;28;20090;-68
2023/05/14 02:26:20;;;;;;;8.05;4.50;;;;;;;14.24;100.00;101598.72;2089813;28;20079;-68
2023/05/14 02:27:42;;;;;;;7.47;4.50;;;;;;;14.17;100.00;101602.16;2078817;28;20046;-68
2023/05/14 02:29:04;;;;;;;7.03;4.80;;;;;;;14.15;100.00;101596.81;2084300;28;20078;-68
2023/05/14 02:30:26;;;;;;;8.77;5.00;;;;;;;14.17;100.00;101599.50;2106015;28;20044;-68
2023/05/14 02:31:48;;;;;;;8.98;5.20;;;;;;;14.17;100.00;101600.38;2091738;28;20420;-68
2023/05/14 02:33:09;;;;;;;9.05;5.10;;;;;;;14.16;100.00;101603.91;2104251;28;20048;-68
2023/05/14 02:34:33;;;;;;;7.22;4.90;;;;;;;14.16;100.00;101595.94;2091789;28;20048;-68
2023/05/14 02:35:54;;;;;;;7.80;4.53;;;;;;;14.17;100.00;101600.38;2094504;28;20102;-68
2023/05/14 02:37:17;;;;;;;11.45;5.57;;;;;;;14.18;100.00;101604.81;2086085;28;20552;-68
2023/05/14 02:38:41;;;;;;;7.50;4.65;;;;;;;14.15;100.00;101606.53;2084528;28;20056;-68
2023/05/14 02:40:04;;;;;;;11.48;5.03;;;;;;;14.15;100.00;101606.53;2086818;28;20056;-68
2023/05/14 02:41:27;;;;;;;7.85;4.22;;;;;;;14.13;100.00;101597.63;2083788;28;20052;-69
2023/05/14 02:42:48;;;;;;;8.65;4.72;;;;;;;14.15;100.00;101602.13;2094790;28;20044;-68
2023/05/14 02:44:10;;;;;;;8.38;5.32;;;;;;;14.18;100.00;101595.94;2088409;28;20040;-69
2023/05/14 02:45:31;;;;;;;9.70;4.90;;;;;;;14.18;100.00;101602.16;2087137;28;20064;-68
2023/05/14 02:46:54;;;;;;;10.85;4.88;;;;;;;14.19;100.00;101600.38;2103644;28;20488;-69
2023/05/14 02:48:15;;;;;;;7.68;4.45;;;;;;;14.18;100.00;101607.44;2090209;28;20041;-69
2023/05/14 02:49:37;;;;;;;7.68;4.68;;;;;;;14.19;100.00;101603.94;2089228;28;20474;-68
2023/05/14 02:50:59;;;;;;;9.25;4.75;;;;;;;14.19;100.00;101600.38;2086206;28;20116;-68
2023/05/14 02:52:21;;;;;;;9.05;4.93;;;;;;;14.19;100.00;101608.34;2085583;28;20387;-68
2023/05/14 02:53:45;;;;;;;8.73;5.00;;;;;;;14.18;100.00;101602.16;2078441;28;20734;-68
2023/05/14 02:55:09;;;;;;;7.88;5.13;;;;;;;14.17;100.00;101600.38;2099272;28;20519;-68
2023/05/14 02:56:30;;;;;;;10.60;5.88;;;;;;;14.19;100.00;101606.59;2089454;28;20102;-68
2023/05/14 02:57:52;;;;;;;8.73;5.07;;;;;;;14.19;100.00;101603.94;2086842;28;20045;-68
2023/05/14 02:59:14;;;;;;;11.70;5.30;;;;;;;14.18;100.00;101606.56;2090746;28;20037;-68
2023/05/14 03:00:36;;;;;;;7.72;4.85;;;;;;;14.15;100.00;101607.44;2085777;28;20509;-68
2023/05/14 03:01:59;;;;;;;9.75;5.00;;;;;;;14.13;100.00;101606.50;2084303;28;20056;-68
2023/05/14 03:03:21;;;;;;;8.05;5.05;;;;;;;14.12;100.00;101603.81;2077490;28;20634;-68
2023/05/14 03:04:43;;;;;;;8.75;4.75;;;;;;;14.10;100.00;101609.13;2089571;28;20060;-68
2023/05/14 03:06:04;;;;;;;9.63;4.97;;;;;;;14.09;100.00;101606.44;2094172;28;20055;-68
2023/05/14 03:07:27;;;;;;;8.10;5.35;;;;;;;14.09;100.00;101606.44;2094961;28;20041;-68
2023/05/14 03:08:49;;;;;;;10.57;5.10;;;;;;;14.11;100.00;101602.91;2093533;28;20045;-68
2023/05/14 03:10:12;;;;;;;9.13;5.43;;;;;;;14.11;100.00;101602.91;2095017;28;20157;-68
2023/05/14 03:11:33;;;;;;;9.40;4.90;;;;;;;14.13;100.00;101609.16;2083549;28;20041;-68
2023/05/14 03:12:56;;;;;;;9.10;4.60;;;;;;;14.15;100.00;101614.50;2093619;28;20566;-68
2023/05/14 03:14:17;;;;;;;9.55;5.10;;;;;;;14.15;100.00;101614.50;2103099;28;20131;-68
2023/05/14 03:15:39;;;;;;;8.52;5.15;;;;;;;14.15;100.00;101614.50;2097221;28;20040;-67
2023/05/14 03:17:01;;;;;;;8.48;4.68;;;;;;;14.17;100.00;101605.69;2105559;28;20654;-68
2023/05/14 03:18:23;;;;;;;6.47;4.22;;;;;;;14.17;100.00;101610.13;2083284;28;20045;-68
2023/05/14 03:19:44;;;;;;;7.07;4.40;;;;;;;14.19;100.00;101605.69;2097525;28;20190;-68
2023/05/14 03:21:07;;;;;;;7.30;4.43;;;;;;;14.21;100.00;101609.28;2096187;28;20053;-68
2023/05/14 03:22:29;;;;;;;8.23;4.68;;;;;;;14.24;100.00;101604.88;2103012;28;20097;-68
2023/05/14 03:23:53;;;;;;;7.80;4.82;;;;;;;14.25;100.00;101604.03;2091214;28;20852;-68
2023/05/14 03:25:14;;;;;;;7.68;4.60;;;;;;;14.27;100.00;101607.59;2103406;28;20059;-69
2023/05/14 03:26:36;;;;;;;9.43;4.75;;;;;;;14.28;100.00;101608.50;2090021;28;20053;-69
2023/05/14 03:27:58;;;;;;;7.55;4.75;;;;;;;14.25;100.00;101605.78;2084284;28;20091;-68
2023/05/14 03:29:20;;;;;;;7.57;4.38;;;;;;;14.23;100.00;101605.78;2107674;28;20044;-68
2023/05/14 03:30:42;;;;;;;8.10;4.40;;;;;;;14.22;100.00;101598.69;2084851;28;20072;-68
2023/05/14 03:32:05;;;;;;;9.95;4.70;;;;;;;14.24;100.00;101612.84;2091308;28;20139;-68
2023/05/14 03:33:28;;;;;;;5.63;4.35;;;;;;;14.27;100.00;101606.69;2085682;28;20060;-69
2023/05/14 03:34:51;;;;;;;7.75;4.65;;;;;;;14.26;100.00;101605.81;2083604;28;20045;-68
2023/05/14 03:36:13;;;;;;;6.70;3.88;;;;;;;14.27;100.00;101607.59;2092095;28;20052;-68
2023/05/14 03:37:35;;;;;;;8.82;4.22;;;;;;;14.33;100.00;101613.00;2093518;28;20055;-68
2023/05/14 03:38:59;;;;;;;7.75;4.20;;;;;;;14.32;100.00;101608.53;2103151;28;20048;-69
2023/05/14 03:40:20;;;;;;;6.65;4.38;;;;;;;14.32;100.00;101610.31;2091380;28;20115;-68
2023/05/14 03:41:43;;;;;;;9.23;3.80;;;;;;;14.34;100.00;101605.91;2089088;28;20498;-68
2023/05/14 03:43:05;;;;;;;5.85;3.78;;;;;;;14.39;100.00;101609.56;2085591;28;20079;-68
2023/05/14 03:44:26;;;;;;;8.25;3.85;;;;;;;14.48;100.00;101603.50;2093346;28;20129;-68
2023/05/14 03:45:51;;;;;;;5.18;3.50;;;;;;;14.56;100.00;101592.09;2085496;28;20061;-68
2023/05/14 03:47:12;;;;;;;6.00;4.20;;;;;;;14.65;100.00;101588.63;2083401;28;20416;-68
2023/05/14 03:48:35;;;;;;;7.28;4.32;;;;;;;14.73;100.00;101597.59;2077049;28;20561;-68
2023/05/14 03:49:58;;;;;;;5.40;3.67;;;;;;;14.80;100.00;101599.47;2081116;28;20111;-68
2023/05/14 03:51:21;;;;;;;8.52;4.05;;;;;;;14.87;100.00;101606.63;2085964;28;20148;-68
2023/05/14 03:52:44;;;;;;;9.27;4.22;;;;;;;14.96;100.00;101606.75;2081842;28;20049;-69
2023/05/14 03:54:08;;;;;;;9.60;3.90;;;;;;;15.00;100.00;101607.66;2084041;28;20045;-68
2023/05/14 03:55:31;;;;;;;7.13;4.07;;;;;;;14.99;100.00;101617.41;2090538;28;20041;-68
2023/05/14 03:56:54;;;;;;;10.20;4.00;;;;;;;15.03;100.00;101613.91;2102937;28;20666;-68
2023/05/14 03:58:16;;;;;;;8.60;3.60;;;;;;;15.09;100.00;101616.66;2091156;28;20049;-68
2023/05/14 03:59:38;;;;;;;8.50;3.30;;;;;;;15.19;100.00;101622.03;2093461;28;20044;-68
2023/05/14 04:00:59;;;;;;;7.25;3.75;;;;;;;15.29;100.00;101626.59;2080137;28;20054;-68
2023/05/14 04:02:22;;;;;;;5.68;3.58;;;;;;;15.38;100.00;101626.69;2089758;28;20036;-69
2023/05/14 04:03:45;;;;;;;10.50;4.10;;;;;;;15.48;100.00;101626.81;2094334;28;20583;-69
2023/05/14 04:05:10;;;;;;;7.93;3.78;;;;;;;15.57;100.00;101627.78;2080250;28;20144;-70
2023/05/14 04:06:33;;;;;;;5.00;3.17;;;;;;;15.62;100.00;101618.94;2093003;28;20474;-69
2023/05/14 04:07:58;;;;;;;4.75;3.25;;;;;;;15.58;100.00;101622.47;2085528;28;20524;-68
2023/05/14 04:09:22;;;;;;;6.00;3.08;;;;;;;15.58;100.00;101624.25;2100193;28;20051;-69
2023/05/14 04:10:45;;;;;;;9.80;3.63;;;;;;;15.64;100.00;101624.28;2085546;28;20386;-69
2023/05/14 04:12:08;;;;;;;8.63;3.83;;;;;;;15.75;100.00;101620.84;2106935;28;20496;-69
2023/05/14 04:13:30;;;;;;;7.13;3.30;;;;;;;15.87;100.00;101628.94;2091092;28;20505;-69
2023/05/14 04:14:52;;;;;;;5.57;3.38;;;;;;;15.98;100.00;101629.00;2086112;28;20053;-69
2023/05/14 04:16:14;;;;;;;9.15;3.85;;;;;;;16.10;100.00;101629.09;2099712;28;20079;-69
2023/05/14 04:17:40;;;;;;;6.57;3.40;;;;;;;16.23;100.00;101632.72;2087350;28;20049;-69
2023/05/14 04:19:02;;;;;;;5.35;3.25;;;;;;;16.34;100.00;101631.06;2094396;28;20503;-69
2023/05/14 04:20:25;;;;;;;5.13;3.17;;;;;;;16.45;100.00;101637.31;2082244;28;20131;-69
2023/05/14 04:21:47;;;;;;;4.65;3.00;;;;;;;16.54;100.00;101633.81;2075097;28;20041;-69
2023/05/14 04:23:10;;;;;;;6.05;3.00;;;;;;;16.63;100.00;101632.13;2089363;28;20055;-68
2023/05/14 04:24:32;;;;;;;8.10;4.03;;;;;;;16.76;100.00;101633.06;2092496;28;20452;-69
2023/05/14 04:25:55;;;;;;;6.85;2.97;;;;;;;16.88;100.00;101634.88;2093059;28;20044;-69
2023/05/14 04:27:21;;;;;;;6.47;2.95;;;;;;;17.02;100.00;101631.38;2105084;28;20035;-69
2023/05/14 04:28:43;;;;;;;7.38;3.47;;;;;;;17.12;100.00;101630.53;2092899;28;20076;-68
2023/05/14 04:30:07;;;;;;;9.05;3.90;;;;;;;17.25;100.00;101636.78;2104416;28;20043;-68
2023/05/14 04:31:30;;;;;;;9.05;3.90;;;;;;;17.36;100.00;101634.13;2095257;28;20530;-69
2023/05/14 04:32:52;;;;;;;8.70;3.42;;;;;;;17.44;100.00;101638.59;2102657;28;20758;-69
2023/05/14 04:34:15;;;;;;;5.85;2.90;;;;;;;17.54;100.00;101632.38;2102641;28;20055;-69
2023/05/14 04:35:37;;;;;;;6.03;2.90;;;;;;;17.62;100.00;101634.19;2094233;28;20033;-69
2023/05/14 04:36:58;;;;;;;5.05;2.70;;;;;;;17.68;100.00;101642.22;2094130;28;20610;-69
2023/05/14 04:38:22;;;;;;;5.80;2.88;;;;;;;17.74;100.00;101645.78;2077436;28;20069;-69
2023/05/14 04:39:45;;;;;;;6.45;3.17;;;;;;;17.83;100.00;101645.78;2090425;28;20520;-69
2023/05/14 04:41:07;;;;;;;6.25;2.20;;;;;;;17.77;100.00;101651.13;2085405;28;20033;-69
2023/05/14 04:42:29;;;;;;;7.00;2.42;;;;;;;17.69;100.00;101647.56;2094262;28;20050;-70
2023/05/14 04:43:51;;;;;;;4.85;2.63;;;;;;;17.63;100.00;101639.53;2109238;28;20067;-69
2023/05/14 04:45:13;;;;;;;6.32;2.55;;;;;;;17.63;100.00;101644.00;2099016;28;20052;-69
2023/05/14 04:46:35;;;;;;;5.30;2.55;;;;;;;17.67;100.00;101652.00;2096879;28;20044;-70
2023/05/14 04:47:56;;;;;;;6.60;2.42;;;;;;;17.72;100.00;101655.56;2105359;28;20040;-70
2023/05/14 04:49:19;;;;;;;7.80;2.95;;;;;;;17.78;100.00;101655.59;2090126;28;20068;-69
2023/05/14 04:50:43;;;;;;;3.95;2.63;;;;;;;17.87;100.00;101649.34;2093243;28;20079;-69
2023/05/14 04:52:06;;;;;;;4.75;2.30;;;;;;;17.94;100.00;101645.78;2092965;28;20143;-69
2023/05/14 04:53:28;;;;;;;4.43;2.15;;;;;;;18.03;100.00;101636.88;2085863;28;20144;-69
2023/05/14 04:54:52;;;;;;;5.18;2.40;;;;;;;18.16;100.00;101641.31;2075130;28;20103;-70
2023/05/14 04:56:14;;;;;;;4.80;2.50;;;;;;;18.31;100.00;101636.81;2089276;28;20079;-69
2023/05/14 04:57:35;;;;;;;4.38;2.40;;;;;;;18.51;100.00;101643.91;2091569;28;20052;-69
2023/05/14 04:58:58;;;;;;;6.10;2.50;;;;;;;18.70;100.00;101641.22;2107286;28;20155;-68
2023/05/14 05:00:20;;;;;;;5.97;2.30;;;;;;;18.90;100.00;101643.81;2084704;28;20048;-69
2023/05/14 05:01:42;;;;;;;5.93;2.15;;;;;;;19.10;100.00;101641.00;2107974;28;20056;-69
2023/05/14 05:03:05;;;;;;;4.38;2.15;;;;;;;19.30;100.00;101641.78;2098995;28;20037;-69
2023/05/14 05:04:27;;;;;;;5.10;2.13;;;;;;;19.50;100.00;101633.66;2107582;28;20138;-70
2023/05/14 05:05:49;;;;;;;4.05;2.28;;;;;;;19.70;100.00;101650.47;2094685;28;20052;-69
2023/05/14 05:07:11;;;;;;;4.88;2.55;;;;;;;19.86;100.00;101653.94;2095659;28;20044;-69
2023/05/14 05:08:33;;;;;;;5.78;2.35;;;;;;;19.98;100.00;101645.78;2086311;28;20492;-69
2023/05/14 05:09:56;;;;;;;8.80;2.35;;;;;;;20.11;100.00;101649.22;2105287;28;20530;-70
2023/05/14 05:11:18;;;;;;;6.13;2.20;;;;;;;20.22;100.00;101653.59;2098671;28;20041;-70
2023/05/14 05:12:41;;;;;;;5.82;1.77;;;;;;;20.29;100.00;101646.38;2106283;28;20722;-69
2023/05/14 05:14:03;;;;;;;2.80;1.70;;;;;;;20.34;100.00;101654.44;2086591;28;20041;-69
2023/05/14 05:15:25;;;;;;;5.72;2.42;;;;;;;20.41;100.00;101658.81;2089937;28;20048;-70
2023/05/14 05:16:48;;;;;;;5.22;2.40;;;;;;;20.53;100.00;101654.22;2093521;28;20436;-70
2023/05/14 05:18:09;;;;;;;4.05;1.98;;;;;;;20.66;100.00;101653.16;2103505;28;20059;-69
2023/05/14 05:19:31;;;;;;;3.75;2.25;;;;;;;20.81;95.77;101657.44;2088166;28;20065;-70
2023/05/14 05:20:54;;;;;;;6.35;2.13;;;;;;;20.95;89.99;101655.47;2084645;28;20575;-70
2023/05/14 05:22:17;;;;;;;3.50;1.90;;;;;;;21.12;86.54;101660.66;2087657;28;20528;-69
2023/05/14 05:23:38;;;;;;;5.78;1.90;;;;;;;21.27;83.67;101667.63;2105061;28;20040;-69
2023/05/14 05:25:04;;;;;;;4.38;1.80;;;;;;;21.42;84.72;101662.91;2093828;28;20036;-70
2023/05/14 05:26:27;;;;;;;3.72;1.98;;;;;;;21.57;84.94;101677.94;2093984;28;20087;-70
2023/05/14 05:27:48;;;;;;;5.40;2.17;;;;;;;21.68;81.18;101675.97;2084555;28;20040;-70
2023/05/14 05:29:11;;;;;;;4.65;2.05;;;;;;;21.80;75.90;101674.88;2091854;28;20477;-70
2023/05/14 05:30:32;;;;;;;4.63;2.10;;;;;;;21.91;75.48;101677.41;2090669;28;20052;-70
2023/05/14 05:31:54;;;;;;;5.20;2.20;;;;;;;22.01;74.63;101677.25;2104052;28;20062;-70
2023/05/14 05:33:17;;;;;;;5.10;2.03;;;;;;;22.12;70.58;101671.72;2096201;28;20412;-70
2023/05/14 05:34:38;;;;;;;3.97;2.08;;;;;;;22.23;66.98;101661.63;2091369;28;20033;-69
2023/05/14 05:36:00;;;;;;;6.53;2.97;;;;;;;22.37;65.24;101673.03;2089876;28;20099;-69
2023/05/14 05:37:22;;;;;;;5.72;1.90;;;;;;;22.53;64.38;101676.31;2090272;28;20052;-70
2023/05/14 05:38:44;;;;;;;3.00;1.45;;;;;;;22.71;64.03;101677.78;2084155;28;20037;-69
2023/05/14 05:40:09;;;;;;;2.80;1.85;;;;;;;22.88;62.27;101676.56;2090605;28;20133;-70
2023/05/14 05:41:30;;;;;;;3.05;1.48;;;;;;;23.00;62.36;101683.50;2093839;28;20048;-70
2023/05/14 05:42:53;;;;;;;3.50;2.05;;;;;;;23.15;61.84;101682.28;2087512;28;20073;-69
2023/05/14 05:44:14;;;;;;;4.68;1.98;;;;;;;23.33;60.04;101687.25;2084293;28;20400;-69
2023/05/14 05:45:37;;;;;;;3.97;1.70;;;;;;;23.50;58.71;101693.19;2098494;28;20063;-70
2023/05/14 05:46:58;;;;;;;4.43;1.60;;;;;;;23.66;58.80;101693.72;2082704;28;20048;-70
2023/05/14 05:48:20;;;;;;;5.00;1.67;;;;;;;23.80;57.71;101689.78;2075618;28;20116;-69
2023/05/14 05:49:42;;;;;;;3.97;1.70;;;;;;;23.94;55.72;101689.44;2098199;28;20044;-70
2023/05/14 05:51:04;;;;;;;7.65;2.30;;;;;;;24.07;53.71;101687.31;2098457;28;20036;-70
2023/05/14 05:52:26;;;;;;;6.47;2.15;;;;;;;24.19;52.06;101679.84;2088535;28;20060;-69
2023/05/14 05:53:48;;;;;;;5.60;1.80;;;;;;;24.38;51.05;101687.44;2091250;28;20048;-69
2023/05/14 05:55:11;;;;;;;5.50;1.80;;;;;;;24.52;50.33;101680.75;2089376;28;20047;-70
2023/05/14 05:56:33;;;;;;;4.15;1.80;;;;;;;24.64;48.29;101676.81;2091769;28;20132;-70
2023/05/14 05:57:55;;;;;;;4.43;1.60;;;;;;;24.79;47.44;101675.50;2090473;28;20041;-70
2023/05/14 05:59:17;;;;;;;3.75;1.50;;;;;;;24.90;46.46;101676.09;2092681;28;20049;-70
2023/05/14 06:00:39;;;;;;;5.43;1.88;;;;;;;24.98;45.53;101674.06;2092535;28;20569;-70
2023/05/14 06:02:01;;;;;;;3.75;1.90;;;;;;;25.05;45.09;101672.06;2101745;28;20123;-70
2023/05/14 06:03:22;;;;;;;7.35;2.03;;;;;;;25.12;45.14;101670.97;2098971;28;20049;-69
2023/05/14 06:04:44;;;;;;;3.40;1.40;;;;;;;25.09;44.23;101674.63;2096099;28;20056;-70
2023/05/14 06:06:06;;;;;;;3.78;1.65;;;;;;;25.06;44.36;101680.16;2091863;28;20091;-70
2023/05/14 06:07:28;;;;;;;3.83;1.60;;;;;;;25.06;43.69;101674.75;2083089;28;20053;-70
2023/05/14 06:08:51;;;;;;;4.45;1.67;;;;;;;25.12;43.43;101684.47;2086124;28;20045;-70
2023/05/14 06:10:15;;;;;;;4.00;1.63;;;;;;;25.19;43.58;101686.97;2101923;28;20288;-70
2023/05/14 06:11:37;;;;;;;3.33;1.70;;;;;;;25.35;44.07;101685.53;2087932;28;20063;-69
2023/05/14 06:12:59;;;;;;;5.32;1.67;;;;;;;25.48;43.03;101691.44;2084773;28;20094;-69
2023/05/14 06:14:22;;;;;;;4.25;1.67;;;;;;;25.51;41.92;101693.19;2104017;28;20039;-69
2023/05/14 06:15:43;;;;;;;4.00;1.35;;;;;;;25.45;42.09;101690.69;2096679;28;20049;-69
2023/05/14 06:17:05;;;;;;;2.70;1.60;;;;;;;25.47;42.04;101692.38;2077103;28;20770;-69
2023/05/14 06:18:29;;;;;;;4.13;1.58;;;;;;;25.51;42.10;101683.25;2081841;28;20134;-70
2023/05/14 06:19:50;;;;;;;3.47;1.50;;;;;;;25.65;40.97;101690.97;2091028;28;20473;-70